sensor_id;sensor_type;location;lat;lon;timestamp;pressure;altitude;pressure_sealevel;temperature;humidity
18755;BME280;35061;47.664;9.166;2023-01-28T00:01:42;101956.59;;;0.26;75.89
18755;BME280;35061;47.664;9.166;2023-01-28T00:04:09;101948.94;;;0.26;75.79
18755;BME280;35061;47.664;9.166;2023-01-28T00:06:37;101955.37;;;0.27;75.70
18755;BME280;35061;47.664;9.166;2023-01-28T00:09:05;101949.78;;;0.31;75.82
18755;BME280;35061;47.664;9.166;2023-01-28T00:11:33;101954.63;;;0.37;75.93
18755;BME280;35061;47.664;9.166;2023-01-28T00:14:01;101949.45;;;0.47;75.78
18755;BME280;35061;47.664;9.166;2023-01-28T00:16:31;101945.86;;;0.53;75.76
18755;BME280;35061;47.664;9.166;2023-01-28T00:18:58;101934.61;;;0.57;75.16
18755;BME280;35061;47.664;9.166;2023-01-28T00:21:26;101930.16;;;0.56;75.16
18755;BME280;35061;47.664;9.166;2023-01-28T00:23:55;101935.82;;;0.56;75.32
18755;BME280;35061;47.664;9.166;2023-01-28T00:26:23;101926.60;;;0.66;75.46
18755;BME280;35061;47.664;9.166;2023-01-28T00:28:54;101925.36;;;0.67;75.02
18755;BME280;35061;47.664;9.166;2023-01-28T00:31:23;101927.41;;;0.74;75.17
18755;BME280;35061;47.664;9.166;2023-01-28T00:33:53;101928.63;;;0.73;74.74
18755;BME280;35061;47.664;9.166;2023-01-28T00:36:23;101934.25;;;0.73;74.74
18755;BME280;35061;47.664;9.166;2023-01-28T00:38:56;101927.81;;;0.73;74.75
18755;BME280;35061;47.664;9.166;2023-01-28T00:41:26;101929.84;;;0.76;74.73
18755;BME280;35061;47.664;9.166;2023-01-28T00:43:54;101928.23;;;0.75;74.59
18755;BME280;35061;47.664;9.166;2023-01-28T00:46:23;101937.09;;;0.77;74.68
18755;BME280;35061;47.664;9.166;2023-01-28T00:48:53;101935.88;;;0.78;74.73
18755;BME280;35061;47.664;9.166;2023-01-28T00:51:21;101939.09;;;0.76;74.29
18755;BME280;35061;47.664;9.166;2023-01-28T00:53:49;101945.14;;;0.75;74.55
18755;BME280;35061;47.664;9.166;2023-01-28T00:56:17;101948.77;;;0.79;74.77
18755;BME280;35061;47.664;9.166;2023-01-28T00:58:46;101943.54;;;0.81;74.59
18755;BME280;35061;47.664;9.166;2023-01-28T01:01:20;101945.14;;;0.78;74.40
18755;BME280;35061;47.664;9.166;2023-01-28T01:03:49;101937.09;;;0.77;74.40
18755;BME280;35061;47.664;9.166;2023-01-28T01:06:24;101941.12;;;0.76;74.36
18755;BME280;35061;47.664;9.166;2023-01-28T01:08:51;101941.48;;;0.71;74.24
18755;BME280;35061;47.664;9.166;2023-01-28T01:11:19;101937.85;;;0.66;74.47
18755;BME280;35061;47.664;9.166;2023-01-28T01:13:55;101938.27;;;0.72;74.56
18755;BME280;35061;47.664;9.166;2023-01-28T01:16:26;101939.05;;;0.69;74.68
18755;BME280;35061;47.664;9.166;2023-01-28T01:18:55;101936.25;;;0.69;74.47
18755;BME280;35061;47.664;9.166;2023-01-28T01:21:25;101939.09;;;0.73;74.77
18755;BME280;35061;47.664;9.166;2023-01-28T01:23:53;101940.70;;;0.77;74.90
18755;BME280;35061;47.664;9.166;2023-01-28T01:26:22;101942.72;;;0.77;74.37
18755;BME280;35061;47.664;9.166;2023-01-28T01:28:51;101947.95;;;0.71;74.48
18755;BME280;35061;47.664;9.166;2023-01-28T01:31:20;101941.48;;;0.71;74.48
18755;BME280;35061;47.664;9.166;2023-01-28T01:33:50;101940.70;;;0.74;74.78
18755;BME280;35061;47.664;9.166;2023-01-28T01:36:18;101945.14;;;0.78;74.67
18755;BME280;35061;47.664;9.166;2023-01-28T01:38:52;101943.93;;;0.79;74.41
18755;BME280;35061;47.664;9.166;2023-01-28T01:41:24;101941.12;;;0.72;74.14
18755;BME280;35061;47.664;9.166;2023-01-28T01:44:01;101939.88;;;0.69;74.26
18755;BME280;35061;47.664;9.166;2023-01-28T01:46:40;101948.73;;;0.64;74.32
18755;BME280;35061;47.664;9.166;2023-01-28T01:49:25;101947.07;;;0.56;74.57
18755;BME280;35061;47.664;9.166;2023-01-28T01:51:58;101956.75;;;0.55;74.58
18755;BME280;35061;47.664;9.166;2023-01-28T01:54:29;101953.12;;;0.54;74.61
18755;BME280;35061;47.664;9.166;2023-01-28T01:56:59;101956.32;;;0.57;74.57
18755;BME280;35061;47.664;9.166;2023-01-28T01:59:29;101966.85;;;0.60;74.54
18755;BME280;35061;47.664;9.166;2023-01-28T02:02:04;101966.85;;;0.60;74.47
18755;BME280;35061;47.664;9.166;2023-01-28T02:04:39;101966.00;;;0.55;74.41
18755;BME280;35061;47.664;9.166;2023-01-28T02:07:10;101958.35;;;0.52;74.23
18755;BME280;35061;47.664;9.166;2023-01-28T02:09:39;101966.40;;;0.50;74.49
18755;BME280;35061;47.664;9.166;2023-01-28T02:12:11;101961.55;;;0.51;74.59
18755;BME280;35061;47.664;9.166;2023-01-28T02:14:48;101963.55;;;0.47;74.44
18755;BME280;35061;47.664;9.166;2023-01-28T02:17:19;101970.35;;;0.38;74.61
18755;BME280;35061;47.664;9.166;2023-01-28T02:20:04;101969.14;;;0.39;74.76
18755;BME280;35061;47.664;9.166;2023-01-28T02:33:36;101977.61;;;0.43;74.92
18755;BME280;35061;47.664;9.166;2023-01-28T02:36:17;101978.82;;;0.42;75.19
18755;BME280;35061;47.664;9.166;2023-01-28T02:38:49;101973.20;;;0.46;75.14
18755;BME280;35061;47.664;9.166;2023-01-28T02:41:27;101974.41;;;0.45;75.05
18755;BME280;35061;47.664;9.166;2023-01-28T02:44:01;101973.55;;;0.40;75.03
18755;BME280;35061;47.664;9.166;2023-01-28T02:57:59;101968.72;;;0.34;75.48
18755;BME280;35061;47.664;9.166;2023-01-28T03:00:49;101972.74;;;0.36;75.32
18755;BME280;35061;47.664;9.166;2023-01-28T03:03:27;101967.93;;;0.40;75.38
18755;BME280;35061;47.664;9.166;2023-01-28T03:06:02;101970.38;;;0.42;75.25
18755;BME280;35061;47.664;9.166;2023-01-28T03:11:31;101975.65;;;0.51;75.32
18755;BME280;35061;47.664;9.166;2023-01-28T03:14:19;101967.15;;;0.47;75.08
18755;BME280;35061;47.664;9.166;2023-01-28T03:17:11;101971.98;;;0.43;75.03
18755;BME280;35061;47.664;9.166;2023-01-28T03:19:59;101964.34;;;0.40;75.39
18755;BME280;35061;47.664;9.166;2023-01-28T03:22:50;101973.55;;;0.40;75.63
18755;BME280;35061;47.664;9.166;2023-01-28T03:25:41;101963.52;;;0.39;75.29
18755;BME280;35061;47.664;9.166;2023-01-28T03:28:30;101967.93;;;0.40;75.43
18755;BME280;35061;47.664;9.166;2023-01-28T03:31:20;101969.57;;;0.45;75.49
18755;BME280;35061;47.664;9.166;2023-01-28T03:34:08;101978.89;;;0.49;75.22
18755;BME280;35061;47.664;9.166;2023-01-28T03:36:55;101977.25;;;0.52;75.15
18755;BME280;35061;47.664;9.166;2023-01-28T03:39:28;101972.41;;;0.49;75.30
18755;BME280;35061;47.664;9.166;2023-01-28T03:42:07;101979.25;;;0.44;75.20
18755;BME280;35061;47.664;9.166;2023-01-28T03:44:36;101982.81;;;0.37;75.34
18755;BME280;35061;47.664;9.166;2023-01-28T03:47:17;101981.21;;;0.36;75.29
18755;BME280;35061;47.664;9.166;2023-01-28T03:49:47;101980.39;;;0.32;75.31
18755;BME280;35061;47.664;9.166;2023-01-28T03:52:20;101976.73;;;0.28;75.24
18755;BME280;35061;47.664;9.166;2023-01-28T03:54:48;101988.37;;;0.26;75.40
18755;BME280;35061;47.664;9.166;2023-01-28T03:57:18;101986.41;;;0.31;75.60
18755;BME280;35061;47.664;9.166;2023-01-28T03:59:46;101987.59;;;0.26;75.89
18755;BME280;35061;47.664;9.166;2023-01-28T04:02:16;101987.20;;;0.24;75.86
18755;BME280;35061;47.664;9.166;2023-01-28T04:04:45;101980.72;;;0.23;75.85
18755;BME280;35061;47.664;9.166;2023-01-28T04:07:13;101988.01;;;0.28;75.92
18755;BME280;35061;47.664;9.166;2023-01-28T04:09:42;101983.56;;;0.27;75.94
18755;BME280;35061;47.664;9.166;2023-01-28T04:12:10;101987.20;;;0.27;76.13
18755;BME280;35061;47.664;9.166;2023-01-28T04:14:38;101985.98;;;0.25;76.10
18755;BME280;35061;47.664;9.166;2023-01-28T04:17:07;101990.76;;;0.21;76.37
18755;BME280;35061;47.664;9.166;2023-01-28T04:19:36;101989.19;;;0.23;76.27
18755;BME280;35061;47.664;9.166;2023-01-28T04:22:06;101983.17;;;0.25;76.41
18755;BME280;35061;47.664;9.166;2023-01-28T04:24:33;101988.37;;;0.23;76.19
18755;BME280;35061;47.664;9.166;2023-01-28T04:27:01;101994.78;;;0.20;76.33
18755;BME280;35061;47.664;9.166;2023-01-28T04:29:29;101988.37;;;0.19;76.16
18755;BME280;35061;47.664;9.166;2023-01-28T04:31:58;101987.48;;;0.15;76.27
18755;BME280;35061;47.664;9.166;2023-01-28T04:34:25;101993.96;;;0.16;76.35
18755;BME280;35061;47.664;9.166;2023-01-28T04:36:53;101997.20;;;0.18;76.42
18755;BME280;35061;47.664;9.166;2023-01-28T04:39:21;102001.26;;;0.20;76.41
18755;BME280;35061;47.664;9.166;2023-01-28T04:41:48;101999.23;;;0.21;76.23
18755;BME280;35061;47.664;9.166;2023-01-28T04:44:16;102004.85;;;0.21;77.10
18755;BME280;35061;47.664;9.166;2023-01-28T04:46:44;102004.06;;;0.20;76.43
18755;BME280;35061;47.664;9.166;2023-01-28T04:49:12;102012.08;;;0.15;76.41
18755;BME280;35061;47.664;9.166;2023-01-28T04:51:39;102007.23;;;0.15;76.75
18755;BME280;35061;47.664;9.166;2023-01-28T04:54:07;102007.63;;;0.13;76.75
18755;BME280;35061;47.664;9.166;2023-01-28T04:56:35;102001.58;;;0.11;76.80
18755;BME280;35061;47.664;9.166;2023-01-28T04:59:02;102004.43;;;0.11;76.58
18755;BME280;35061;47.664;9.166;2023-01-28T05:01:30;102006.42;;;0.11;76.63
18755;BME280;35061;47.664;9.166;2023-01-28T05:03:58;102005.21;;;0.12;76.95
18755;BME280;35061;47.664;9.166;2023-01-28T05:06:26;102008.41;;;0.14;76.77
18755;BME280;35061;47.664;9.166;2023-01-28T05:08:53;102018.91;;;0.13;76.85
18755;BME280;35061;47.664;9.166;2023-01-28T05:11:21;102016.88;;;0.14;76.82
18755;BME280;35061;47.664;9.166;2023-01-28T05:13:49;102024.54;;;0.13;76.81
18755;BME280;35061;47.664;9.166;2023-01-28T05:16:17;102029.77;;;0.11;76.94
18755;BME280;35061;47.664;9.166;2023-01-28T05:18:45;102038.20;;;0.11;76.93
18755;BME280;35061;47.664;9.166;2023-01-28T05:21:14;102032.19;;;0.13;76.66
18755;BME280;35061;47.664;9.166;2023-01-28T05:23:42;102031.34;;;0.09;76.73
18755;BME280;35061;47.664;9.166;2023-01-28T05:26:10;102042.62;;;0.09;76.70
18755;BME280;35061;47.664;9.166;2023-01-28T05:28:37;102046.22;;;0.06;76.76
18755;BME280;35061;47.664;9.166;2023-01-28T05:31:06;102035.75;;;0.06;76.64
18755;BME280;35061;47.664;9.166;2023-01-28T05:33:34;102044.22;;;0.10;76.81
18755;BME280;35061;47.664;9.166;2023-01-28T05:36:01;102040.59;;;0.09;76.78
18755;BME280;35061;47.664;9.166;2023-01-28T05:38:29;102049.09;;;0.13;77.04
18755;BME280;35061;47.664;9.166;2023-01-28T05:40:57;102051.94;;;0.17;76.79
18755;BME280;35061;47.664;9.166;2023-01-28T05:43:24;102044.29;;;0.17;76.73
18755;BME280;35061;47.664;9.166;2023-01-28T05:45:52;102039.87;;;0.16;76.85
18755;BME280;35061;47.664;9.166;2023-01-28T05:48:20;102050.73;;;0.18;76.71
18755;BME280;35061;47.664;9.166;2023-01-28T05:50:48;102051.94;;;0.17;76.81
18755;BME280;35061;47.664;9.166;2023-01-28T05:53:16;102047.49;;;0.16;76.94
18755;BME280;35061;47.664;9.166;2023-01-28T05:55:48;102051.94;;;0.17;76.91
18755;BME280;35061;47.664;9.166;2023-01-28T05:58:16;102058.38;;;0.17;77.11
18755;BME280;35061;47.664;9.166;2023-01-28T06:00:44;102061.59;;;0.16;76.82
18755;BME280;35061;47.664;9.166;2023-01-28T06:03:12;102055.11;;;0.11;76.67
18755;BME280;35061;47.664;9.166;2023-01-28T06:05:39;102059.95;;;0.11;76.75
18755;BME280;35061;47.664;9.166;2023-01-28T06:08:07;102063.98;;;0.10;76.99
18755;BME280;35061;47.664;9.166;2023-01-28T06:10:35;102062.77;;;0.11;76.88
18755;BME280;35061;47.664;9.166;2023-01-28T06:13:03;102067.57;;;0.10;76.95
18755;BME280;35061;47.664;9.166;2023-01-28T06:15:31;102065.97;;;0.09;76.89
18755;BME280;35061;47.664;9.166;2023-01-28T06:17:59;102074.41;;;0.09;77.36
18755;BME280;35061;47.664;9.166;2023-01-28T06:20:26;102072.80;;;0.08;76.72
18755;BME280;35061;47.664;9.166;2023-01-28T06:22:54;102073.62;;;0.09;76.86
18755;BME280;35061;47.664;9.166;2023-01-28T06:25:22;102073.98;;;0.07;76.80
18755;BME280;35061;47.664;9.166;2023-01-28T06:27:50;102074.02;;;0.11;76.79
18755;BME280;35061;47.664;9.166;2023-01-28T06:30:17;102078.07;;;0.13;76.81
18755;BME280;35061;47.664;9.166;2023-01-28T06:32:46;102074.44;;;0.13;76.58
18755;BME280;35061;47.664;9.166;2023-01-28T06:35:13;102079.27;;;0.12;76.48
18755;BME280;35061;47.664;9.166;2023-01-28T06:37:41;102077.67;;;0.11;76.50
18755;BME280;35061;47.664;9.166;2023-01-28T06:40:10;102076.86;;;0.11;76.65
18755;BME280;35061;47.664;9.166;2023-01-28T06:42:38;102074.41;;;0.09;76.52
18755;BME280;35061;47.664;9.166;2023-01-28T06:45:06;102081.24;;;0.08;76.35
18755;BME280;35061;47.664;9.166;2023-01-28T06:47:34;102084.48;;;0.07;76.37
18755;BME280;35061;47.664;9.166;2023-01-28T06:50:02;102078.43;;;0.08;76.38
18755;BME280;35061;47.664;9.166;2023-01-28T06:52:30;102086.47;;;0.06;76.24
18755;BME280;35061;47.664;9.166;2023-01-28T06:54:58;102088.50;;;0.06;76.28
18755;BME280;35061;47.664;9.166;2023-01-28T06:57:25;102095.30;;;0.05;76.06
18755;BME280;35061;47.664;9.166;2023-01-28T06:59:53;102090.07;;;0.03;76.21
18755;BME280;35061;47.664;9.166;2023-01-28T07:02:21;102090.07;;;0.03;76.18
18755;BME280;35061;47.664;9.166;2023-01-28T07:04:51;102100.95;;;0.08;76.38
18755;BME280;35061;47.664;9.166;2023-01-28T07:07:18;102095.34;;;0.08;76.09
18755;BME280;35061;47.664;9.166;2023-01-28T07:09:46;102098.57;;;0.10;76.18
18755;BME280;35061;47.664;9.166;2023-01-28T07:12:14;102097.39;;;0.11;76.03
18755;BME280;35061;47.664;9.166;2023-01-28T07:14:42;102104.23;;;0.14;75.97
18755;BME280;35061;47.664;9.166;2023-01-28T07:17:09;102105.44;;;0.13;75.82
18755;BME280;35061;47.664;9.166;2023-01-28T07:19:37;102109.06;;;0.13;76.02
18755;BME280;35061;47.664;9.166;2023-01-28T07:22:05;102110.70;;;0.15;75.79
18755;BME280;35061;47.664;9.166;2023-01-28T07:24:33;102109.85;;;0.14;75.71
18755;BME280;35061;47.664;9.166;2023-01-28T07:27:01;102109.06;;;0.13;75.51
18755;BME280;35061;47.664;9.166;2023-01-28T07:29:31;102107.46;;;0.12;75.65
18755;BME280;35061;47.664;9.166;2023-01-28T07:31:58;102110.73;;;0.18;75.78
18755;BME280;35061;47.664;9.166;2023-01-28T07:34:26;102114.37;;;0.22;75.77
18755;BME280;35061;47.664;9.166;2023-01-28T07:36:54;102113.97;;;0.20;75.30
18755;BME280;35061;47.664;9.166;2023-01-28T07:39:23;102116.42;;;0.29;75.54
18755;BME280;35061;47.664;9.166;2023-01-28T07:41:50;102118.95;;;0.38;75.48
18755;BME280;35061;47.664;9.166;2023-01-28T07:44:19;102133.49;;;0.44;75.01
18755;BME280;35061;47.664;9.166;2023-01-28T07:46:46;102129.87;;;0.47;75.04
18755;BME280;35061;47.664;9.166;2023-01-28T07:49:14;102131.11;;;0.49;74.67
18755;BME280;35061;47.664;9.166;2023-01-28T07:51:42;102133.10;;;0.49;74.05
18755;BME280;35061;47.664;9.166;2023-01-28T07:54:09;102130.32;;;0.52;74.26
18755;BME280;35061;47.664;9.166;2023-01-28T07:56:37;102131.14;;;0.57;73.94
18755;BME280;35061;47.664;9.166;2023-01-28T07:59:05;102133.98;;;0.60;74.40
18755;BME280;35061;47.664;9.166;2023-01-28T08:01:32;102140.03;;;0.62;74.20
18755;BME280;35061;47.664;9.166;2023-01-28T08:04:00;102137.22;;;0.62;73.61
18755;BME280;35061;47.664;9.166;2023-01-28T08:06:28;102145.69;;;0.62;73.71
18755;BME280;35061;47.664;9.166;2023-01-28T08:08:56;102136.41;;;0.58;73.63
18755;BME280;35061;47.664;9.166;2023-01-28T08:11:23;102145.66;;;0.55;73.33
18755;BME280;35061;47.664;9.166;2023-01-28T08:13:51;102156.52;;;0.57;73.44
18755;BME280;35061;47.664;9.166;2023-01-28T08:16:19;102156.13;;;0.54;73.11
18755;BME280;35061;47.664;9.166;2023-01-28T08:18:46;102161.32;;;0.52;73.18
18755;BME280;35061;47.664;9.166;2023-01-28T08:21:14;102155.73;;;0.56;73.40
18755;BME280;35061;47.664;9.166;2023-01-28T08:23:42;102169.04;;;0.59;73.18
18755;BME280;35061;47.664;9.166;2023-01-28T08:26:10;102154.91;;;0.55;72.50
18755;BME280;35061;47.664;9.166;2023-01-28T08:28:37;102163.38;;;0.59;72.74
18755;BME280;35061;47.664;9.166;2023-01-28T08:31:05;102160.99;;;0.61;72.94
18755;BME280;35061;47.664;9.166;2023-01-28T08:33:33;102179.17;;;0.67;72.53
18755;BME280;35061;47.664;9.166;2023-01-28T08:36:02;102169.10;;;0.66;72.46
18755;BME280;35061;47.664;9.166;2023-01-28T08:38:30;102171.10;;;0.66;72.45
18755;BME280;35061;47.664;9.166;2023-01-28T08:40:58;102184.41;;;0.65;72.40
18755;BME280;35061;47.664;9.166;2023-01-28T08:43:26;102176.40;;;0.71;71.44
18755;BME280;35061;47.664;9.166;2023-01-28T08:45:54;102190.88;;;0.69;71.61
18755;BME280;35061;47.664;9.166;2023-01-28T08:48:21;102188.49;;;0.75;71.64
18755;BME280;35061;47.664;9.166;2023-01-28T08:50:49;102184.90;;;0.78;71.78
18755;BME280;35061;47.664;9.166;2023-01-28T08:53:19;102190.13;;;0.80;71.71
18755;BME280;35061;47.664;9.166;2023-01-28T08:55:47;102182.09;;;0.82;71.75
18755;BME280;35061;47.664;9.166;2023-01-28T08:58:16;102185.75;;;0.82;71.55
18755;BME280;35061;47.664;9.166;2023-01-28T09:00:45;102191.77;;;0.81;71.00
18755;BME280;35061;47.664;9.166;2023-01-28T09:03:14;102179.66;;;0.77;71.11
18755;BME280;35061;47.664;9.166;2023-01-28T09:05:41;102180.05;;;0.79;71.26
18755;BME280;35061;47.664;9.166;2023-01-28T09:08:12;102189.73;;;0.78;71.10
18755;BME280;35061;47.664;9.166;2023-01-28T09:10:40;102195.79;;;0.80;70.60
18755;BME280;35061;47.664;9.166;2023-01-28T09:13:11;102197.39;;;0.81;70.87
18755;BME280;35061;47.664;9.166;2023-01-28T09:15:39;102195.85;;;0.87;70.95
18755;BME280;35061;47.664;9.166;2023-01-28T09:18:07;102201.09;;;0.85;70.74
18755;BME280;35061;47.664;9.166;2023-01-28T09:20:36;102208.70;;;0.85;70.61
18755;BME280;35061;47.664;9.166;2023-01-28T09:23:04;102199.45;;;0.88;70.47
18755;BME280;35061;47.664;9.166;2023-01-28T09:25:32;102200.70;;;0.90;70.39
18755;BME280;35061;47.664;9.166;2023-01-28T09:28:03;102207.16;;;0.94;70.27
18755;BME280;35061;47.664;9.166;2023-01-28T09:30:31;102207.16;;;0.94;69.79
18755;BME280;35061;47.664;9.166;2023-01-28T09:33:02;102198.70;;;0.91;68.49
18755;BME280;35061;47.664;9.166;2023-01-28T09:35:30;102206.68;;;0.81;67.94
18755;BME280;35061;47.664;9.166;2023-01-28T09:37:58;102201.41;;;0.80;68.74
18755;BME280;35061;47.664;9.166;2023-01-28T09:40:56;102202.63;;;0.79;68.70
18755;BME280;35061;47.664;9.166;2023-01-28T09:44:02;102211.48;;;0.77;68.59
18755;BME280;35061;47.664;9.166;2023-01-28T09:46:33;102211.09;;;0.79;68.43
18755;BME280;35061;47.664;9.166;2023-01-28T09:49:11;102220.84;;;0.85;68.32
18755;BME280;35061;47.664;9.166;2023-01-28T09:51:51;102216.45;;;0.95;67.95
18755;BME280;35061;47.664;9.166;2023-01-28T09:54:35;102217.73;;;1.05;67.43
18755;BME280;35061;47.664;9.166;2023-01-28T09:57:12;102218.16;;;1.10;67.08
18755;BME280;35061;47.664;9.166;2023-01-28T09:59:43;102220.25;;;1.17;66.60
18755;BME280;35061;47.664;9.166;2023-01-28T10:10:29;102214.33;;;1.44;65.14
18755;BME280;35061;47.664;9.166;2023-01-28T10:18:34;102197.62;;;2.17;64.67
18755;BME280;35061;47.664;9.166;2023-01-28T10:21:11;102196.02;;;2.23;64.38
18755;BME280;35061;47.664;9.166;2023-01-28T10:23:58;102194.02;;;2.27;63.94
18755;BME280;35061;47.664;9.166;2023-01-28T10:26:33;102191.60;;;2.29;64.10
18755;BME280;35061;47.664;9.166;2023-01-28T10:29:19;102190.36;;;2.27;63.86
18755;BME280;35061;47.664;9.166;2023-01-28T10:31:55;102181.89;;;2.27;63.41
18755;BME280;35061;47.664;9.166;2023-01-28T10:34:26;102183.10;;;2.29;63.32
18755;BME280;35061;47.664;9.166;2023-01-28T10:36:54;102188.37;;;2.31;63.29
18755;BME280;35061;47.664;9.166;2023-01-28T10:39:25;102195.23;;;2.37;63.57
18755;BME280;35061;47.664;9.166;2023-01-28T10:41:53;102185.95;;;2.40;62.99
18755;BME280;35061;47.664;9.166;2023-01-28T10:44:44;102182.71;;;2.42;63.26
18755;BME280;35061;47.664;9.166;2023-01-28T10:47:26;102187.16;;;2.35;63.13
18755;BME280;35061;47.664;9.166;2023-01-28T10:49:58;102186.34;;;2.31;63.50
18755;BME280;35061;47.664;9.166;2023-01-28T10:52:28;102181.10;;;2.26;63.76
18755;BME280;35061;47.664;9.166;2023-01-28T10:55:04;102189.18;;;2.24;63.83
18755;BME280;35061;47.664;9.166;2023-01-28T10:57:33;102183.52;;;2.24;63.32
18755;BME280;35061;47.664;9.166;2023-01-28T11:00:23;102189.18;;;2.24;63.48
18755;BME280;35061;47.664;9.166;2023-01-28T11:02:53;102185.52;;;2.23;63.42
18755;BME280;35061;47.664;9.166;2023-01-28T11:05:23;102195.23;;;2.22;63.84
18755;BME280;35061;47.664;9.166;2023-01-28T11:08:05;102190.78;;;2.21;63.53
18755;BME280;35061;47.664;9.166;2023-01-28T11:10:40;102193.17;;;2.12;63.74
18755;BME280;35061;47.664;9.166;2023-01-28T11:13:26;102185.52;;;2.13;63.40
18755;BME280;35061;47.664;9.166;2023-01-28T11:16:01;102193.17;;;2.08;63.57
18755;BME280;35061;47.664;9.166;2023-01-28T11:18:32;102195.20;;;2.08;64.22
18755;BME280;35061;47.664;9.166;2023-01-28T11:21:04;102197.20;;;2.07;64.22
18755;BME280;35061;47.664;9.166;2023-01-28T11:23:35;102195.98;;;2.08;64.53
18755;BME280;35061;47.664;9.166;2023-01-28T11:26:17;102202.85;;;2.04;64.84
18755;BME280;35061;47.664;9.166;2023-01-28T11:28:46;102197.20;;;1.97;65.08
18755;BME280;35061;47.664;9.166;2023-01-28T11:31:15;102204.03;;;1.95;65.26
18755;BME280;35061;47.664;9.166;2023-01-28T11:33:57;102193.92;;;1.91;65.63
18755;BME280;35061;47.664;9.166;2023-01-28T11:36:28;102201.58;;;1.87;65.73
18755;BME280;35061;47.664;9.166;2023-01-28T11:39:00;102188.66;;;1.82;65.91
18755;BME280;35061;47.664;9.166;2023-01-28T11:41:34;102200.79;;;1.83;66.12
18755;BME280;35061;47.664;9.166;2023-01-28T11:44:24;102189.48;;;1.83;66.38
18755;BME280;35061;47.664;9.166;2023-01-28T11:52:14;102187.41;;;1.79;66.64
18755;BME280;35061;47.664;9.166;2023-01-28T11:54:58;102189.05;;;1.77;66.96
18755;BME280;35061;47.664;9.166;2023-01-28T11:57:44;102195.13;;;1.83;67.05
18755;BME280;35061;47.664;9.166;2023-01-28T12:05:54;102187.88;;;1.89;67.17
18755;BME280;35061;47.664;9.166;2023-01-28T12:08:28;102197.95;;;1.90;66.93
18755;BME280;35061;47.664;9.166;2023-01-28T12:13:41;102184.63;;;1.83;66.99
18755;BME280;35061;47.664;9.166;2023-01-28T12:27:23;102190.69;;;1.81;67.05
18755;BME280;35061;47.664;9.166;2023-01-28T12:30:15;102187.84;;;1.78;67.18
18755;BME280;35061;47.664;9.166;2023-01-28T12:35:49;102175.32;;;1.75;67.24
18755;BME280;35061;47.664;9.166;2023-01-28T12:38:26;102183.39;;;1.77;67.33
18755;BME280;35061;47.664;9.166;2023-01-28T12:41:16;102181.79;;;1.79;67.37
18755;BME280;35061;47.664;9.166;2023-01-28T12:43:49;102180.16;;;1.75;67.34
18755;BME280;35061;47.664;9.166;2023-01-28T12:49:22;102187.45;;;1.76;67.47
18755;BME280;35061;47.664;9.166;2023-01-28T12:52:08;102179.34;;;1.71;67.16
18755;BME280;35061;47.664;9.166;2023-01-28T12:57:23;102185.39;;;1.65;67.47
18755;BME280;35061;47.664;9.166;2023-01-28T13:03:19;102194.67;;;1.70;67.53
18755;BME280;35061;47.664;9.166;2023-01-28T13:05:51;102186.60;;;1.72;67.66
18755;BME280;35061;47.664;9.166;2023-01-28T13:08:28;102193.07;;;1.72;67.45
18755;BME280;35061;47.664;9.166;2023-01-28T13:10:58;102191.47;;;1.71;67.30
18755;BME280;35061;47.664;9.166;2023-01-28T13:13:30;102191.86;;;1.73;67.56
18755;BME280;35061;47.664;9.166;2023-01-28T13:15:59;102186.20;;;1.70;67.17
18755;BME280;35061;47.664;9.166;2023-01-28T13:18:43;102191.47;;;1.71;67.40
18755;BME280;35061;47.664;9.166;2023-01-28T13:21:28;102192.23;;;1.68;67.73
18755;BME280;35061;47.664;9.166;2023-01-28T13:26:51;102188.63;;;1.78;67.50
18755;BME280;35061;47.664;9.166;2023-01-28T13:29:32;102194.31;;;1.86;67.65
18755;BME280;35061;47.664;9.166;2023-01-28T13:32:02;102198.77;;;1.87;67.23
18755;BME280;35061;47.664;9.166;2023-01-28T13:35:03;102208.48;;;1.89;67.16
18755;BME280;35061;47.664;9.166;2023-01-28T13:40:20;102201.97;;;1.85;66.87
18755;BME280;35061;47.664;9.166;2023-01-28T13:43:03;102197.98;;;1.86;67.01
18755;BME280;35061;47.664;9.166;2023-01-28T13:45:32;102206.84;;;1.88;66.76
18755;BME280;35061;47.664;9.166;2023-01-28T13:51:26;102224.20;;;1.87;66.60
18755;BME280;35061;47.664;9.166;2023-01-28T13:54:04;102221.78;;;1.89;66.86
18755;BME280;35061;47.664;9.166;2023-01-28T13:56:46;102216.91;;;1.86;66.81
18755;BME280;35061;47.664;9.166;2023-01-28T14:18:47;102243.92;;;1.72;66.72
18755;BME280;35061;47.664;9.166;2023-01-28T14:21:19;102235.84;;;1.71;66.78
18755;BME280;35061;47.664;9.166;2023-01-28T14:23:52;102243.92;;;1.72;66.67
18755;BME280;35061;47.664;9.166;2023-01-28T14:29:33;102235.45;;;1.72;66.70
18755;BME280;35061;47.664;9.166;2023-01-28T14:32:20;102239.05;;;1.69;66.58
18755;BME280;35061;47.664;9.166;2023-01-28T14:34:49;102243.53;;;1.70;66.62
18755;BME280;35061;47.664;9.166;2023-01-28T14:37:23;102248.34;;;1.70;66.64
18755;BME280;35061;47.664;9.166;2023-01-28T14:39:57;102253.60;;;1.71;66.73
18755;BME280;35061;47.664;9.166;2023-01-28T14:42:30;102246.34;;;1.74;66.77
18755;BME280;35061;47.664;9.166;2023-01-28T14:55:58;102262.07;;;1.71;66.87
18755;BME280;35061;47.664;9.166;2023-01-28T14:58:32;102265.73;;;1.75;66.91
18755;BME280;35061;47.664;9.166;2023-01-28T15:01:02;102255.23;;;1.72;66.79
18755;BME280;35061;47.664;9.166;2023-01-28T15:03:31;102275.41;;;1.74;66.82
18755;BME280;35061;47.664;9.166;2023-01-28T15:06:10;102277.41;;;1.74;66.92
18755;BME280;35061;47.664;9.166;2023-01-28T15:08:39;102273.38;;;1.78;66.87
18755;BME280;35061;47.664;9.166;2023-01-28T15:11:27;102281.10;;;1.81;66.89
18755;BME280;35061;47.664;9.166;2023-01-28T15:13:57;102278.68;;;1.84;66.77
18755;BME280;35061;47.664;9.166;2023-01-28T15:16:27;102284.73;;;1.86;66.87
18755;BME280;35061;47.664;9.166;2023-01-28T15:18:59;102285.55;;;1.83;66.72
18755;BME280;35061;47.664;9.166;2023-01-28T15:21:29;102288.79;;;1.85;66.82
18755;BME280;35061;47.664;9.166;2023-01-28T15:23:59;102281.92;;;1.86;66.80